sensor_id;sensor_type;location;lat;lon;timestamp;pressure;altitude;pressure_sealevel;temperature;humidity
76424;BME280;65257;52.104;4.268;2023-04-24T00:00:25;99896.38;;;9.30;100.00
76424;BME280;65257;52.104;4.268;2023-04-24T00:02:51;99889.41;;;9.23;100.00
76424;BME280;65257;52.104;4.268;2023-04-24T00:05:16;99889.56;;;9.29;100.00
76424;BME280;65257;52.104;4.268;2023-04-24T00:07:45;99897.06;;;9.23;100.00
76424;BME280;65257;52.104;4.268;2023-04-24T00:10:11;99885.97;;;9.21;100.00
76424;BME280;65257;52.104;4.268;2023-04-24T00:12:37;99892.69;;;9.19;100.00
76424;BME280;65257;52.104;4.268;2023-04-24T00:15:04;99895.22;;;9.18;100.00
76424;BME280;65257;52.104;4.268;2023-04-24T00:17:31;99896.00;;;9.15;100.00
76424;BME280;65257;52.104;4.268;2023-04-24T00:19:57;99895.19;;;9.16;100.00
76424;BME280;65257;52.104;4.268;2023-04-24T00:22:27;99896.00;;;9.15;100.00
76424;BME280;65257;52.104;4.268;2023-04-24T00:24:54;99894.22;;;9.11;100.00
76424;BME280;65257;52.104;4.268;2023-04-24T00:27:20;99900.22;;;9.13;100.00
76424;BME280;65257;52.104;4.268;2023-04-24T00:29:45;99899.44;;;9.17;100.00
76424;BME280;65257;52.104;4.268;2023-04-24T00:32:11;99900.31;;;9.16;100.00
76424;BME280;65257;52.104;4.268;2023-04-24T00:34:36;99896.91;;;9.17;100.00
76424;BME280;65257;52.104;4.268;2023-04-24T00:37:01;99891.78;;;9.16;100.00
76424;BME280;65257;52.104;4.268;2023-04-24T00:39:27;99892.66;;;9.16;100.00
76424;BME280;65257;52.104;4.268;2023-04-24T00:41:53;99896.00;;;9.15;100.00
76424;BME280;65257;52.104;4.268;2023-04-24T00:44:18;99890.91;;;9.15;100.00
76424;BME280;65257;52.104;4.268;2023-04-24T00:46:45;99899.44;;;9.17;100.00
76424;BME280;65257;52.104;4.268;2023-04-24T00:49:11;99898.56;;;9.15;100.00
76424;BME280;65257;52.104;4.268;2023-04-24T00:51:37;99896.09;;;9.18;100.00
76424;BME280;65257;52.104;4.268;2023-04-24T00:54:03;99896.16;;;9.21;100.00
76424;BME280;65257;52.104;4.268;2023-04-24T00:56:28;99898.00;;;9.27;100.00
76424;BME280;65257;52.104;4.268;2023-04-24T00:58:55;99900.50;;;9.24;100.00
76424;BME280;65257;52.104;4.268;2023-04-24T01:01:21;99899.56;;;9.22;100.00
76424;BME280;65257;52.104;4.268;2023-04-24T01:03:49;99904.63;;;9.20;100.00
76424;BME280;65257;52.104;4.268;2023-04-24T01:06:16;99899.69;;;9.26;100.00
76424;BME280;65257;52.104;4.268;2023-04-24T01:08:41;99903.06;;;9.25;100.00
76424;BME280;65257;52.104;4.268;2023-04-24T01:11:08;99902.28;;;9.28;100.00
76424;BME280;65257;52.104;4.268;2023-04-24T01:13:34;99906.47;;;9.24;100.00
76424;BME280;65257;52.104;4.268;2023-04-24T01:16:00;99897.06;;;9.23;100.00
76424;BME280;65257;52.104;4.268;2023-04-24T01:18:26;99899.53;;;9.20;100.00
76424;BME280;65257;52.104;4.268;2023-04-24T01:20:53;99893.53;;;9.18;100.00
76424;BME280;65257;52.104;4.268;2023-04-24T01:23:22;99902.09;;;9.20;100.00
76424;BME280;65257;52.104;4.268;2023-04-24T01:25:48;99902.13;;;9.22;100.00
76424;BME280;65257;52.104;4.268;2023-04-24T01:28:14;99894.34;;;9.17;100.00
76424;BME280;65257;52.104;4.268;2023-04-24T01:30:41;99901.88;;;9.11;100.00
76424;BME280;65257;52.104;4.268;2023-04-24T01:33:07;99897.66;;;9.13;100.00
76424;BME280;65257;52.104;4.268;2023-04-24T01:35:33;99898.63;;;9.18;100.00
76424;BME280;65257;52.104;4.268;2023-04-24T01:37:58;99896.97;;;9.20;100.00
76424;BME280;65257;52.104;4.268;2023-04-24T01:40:24;99895.38;;;9.24;100.00
76424;BME280;65257;52.104;4.268;2023-04-24T01:42:50;99892.78;;;9.22;100.00
76424;BME280;65257;52.104;4.268;2023-04-24T01:45:16;99889.25;;;9.17;100.00
76424;BME280;65257;52.104;4.268;2023-04-24T01:47:41;99897.00;;;9.22;100.00
76424;BME280;65257;52.104;4.268;2023-04-24T01:50:09;99892.69;;;9.19;100.00
76424;BME280;65257;52.104;4.268;2023-04-24T01:52:34;99899.63;;;9.23;100.00
76424;BME280;65257;52.104;4.268;2023-04-24T01:55:01;99894.50;;;9.23;100.00
76424;BME280;65257;52.104;4.268;2023-04-24T01:57:28;99888.47;;;9.20;100.00
76424;BME280;65257;52.104;4.268;2023-04-24T01:59:56;99888.59;;;9.24;100.00
76424;BME280;65257;52.104;4.268;2023-04-24T02:02:22;99880.78;;;9.18;100.00
76424;BME280;65257;52.104;4.268;2023-04-24T02:04:56;99877.38;;;9.19;100.00
76424;BME280;65257;52.104;4.268;2023-04-24T02:07:21;99882.19;;;9.07;100.00
76424;BME280;65257;52.104;4.268;2023-04-24T02:09:47;99874.59;;;9.09;100.00
76424;BME280;65257;52.104;4.268;2023-04-24T02:12:13;99875.50;;;9.12;100.00
76424;BME280;65257;52.104;4.268;2023-04-24T02:14:41;99876.38;;;9.13;100.00
76424;BME280;65257;52.104;4.268;2023-04-24T02:17:09;99869.59;;;9.13;100.00
76424;BME280;65257;52.104;4.268;2023-04-24T02:19:37;99880.69;;;9.15;100.00
76424;BME280;65257;52.104;4.268;2023-04-24T02:22:06;99884.13;;;9.17;100.00
76424;BME280;65257;52.104;4.268;2023-04-24T02:24:42;99877.19;;;9.12;100.00
76424;BME280;65257;52.104;4.268;2023-04-24T02:27:11;99889.13;;;9.11;100.00
76424;BME280;65257;52.104;4.268;2023-04-24T02:29:36;99889.94;;;9.12;100.00
76424;BME280;65257;52.104;4.268;2023-04-24T02:32:03;99900.94;;;9.09;100.00
76424;BME280;65257;52.104;4.268;2023-04-24T02:34:28;99899.31;;;9.11;100.00
76424;BME280;65257;52.104;4.268;2023-04-24T02:36:55;99898.38;;;9.08;100.00
76424;BME280;65257;52.104;4.268;2023-04-24T02:39:21;99904.25;;;9.05;100.00
76424;BME280;65257;52.104;4.268;2023-04-24T02:41:46;99902.50;;;9.03;100.00
76424;BME280;65257;52.104;4.268;2023-04-24T02:44:12;99900.00;;;8.73;100.00
76424;BME280;65257;52.104;4.268;2023-04-24T02:46:37;99901.09;;;8.82;100.00
76424;BME280;65257;52.104;4.268;2023-04-24T02:49:06;99903.84;;;8.90;100.00
76424;BME280;65257;52.104;4.268;2023-04-24T02:51:33;99904.09;;;8.99;100.00
76424;BME280;65257;52.104;4.268;2023-04-24T02:54:00;99906.56;;;8.96;100.00
76424;BME280;65257;52.104;4.268;2023-04-24T02:56:25;99907.41;;;8.95;100.00
76424;BME280;65257;52.104;4.268;2023-04-24T02:58:50;99911.78;;;9.01;100.00
76424;BME280;65257;52.104;4.268;2023-04-24T03:01:18;99905.91;;;9.03;100.00
76424;BME280;65257;52.104;4.268;2023-04-24T03:03:44;99907.56;;;9.01;100.00
76424;BME280;65257;52.104;4.268;2023-04-24T03:06:09;99905.91;;;9.03;100.00
76424;BME280;65257;52.104;4.268;2023-04-24T03:08:36;99911.22;;;9.12;100.00
76424;BME280;65257;52.104;4.268;2023-04-24T03:11:04;99919.88;;;9.17;100.00
76424;BME280;65257;52.104;4.268;2023-04-24T03:13:33;99912.22;;;9.17;100.00
76424;BME280;65257;52.104;4.268;2023-04-24T03:16:00;99918.28;;;9.22;100.00
76424;BME280;65257;52.104;4.268;2023-04-24T03:18:28;99918.28;;;9.22;100.00
76424;BME280;65257;52.104;4.268;2023-04-24T03:20:56;99919.34;;;9.29;100.00
76424;BME280;65257;52.104;4.268;2023-04-24T03:23:22;99918.47;;;9.28;100.00
76424;BME280;65257;52.104;4.268;2023-04-24T03:25:47;99920.34;;;9.35;100.00
76424;BME280;65257;52.104;4.268;2023-04-24T03:28:15;99916.97;;;9.36;100.00
76424;BME280;65257;52.104;4.268;2023-04-24T03:30:40;99920.41;;;9.38;100.00
76424;BME280;65257;52.104;4.268;2023-04-24T03:33:08;99920.19;;;9.29;100.00
76424;BME280;65257;52.104;4.268;2023-04-24T03:35:35;99919.13;;;9.21;100.00
76424;BME280;65257;52.104;4.268;2023-04-24T03:38:01;99920.91;;;9.24;100.00
76424;BME280;65257;52.104;4.268;2023-04-24T03:40:26;99926.94;;;9.27;100.00
76424;BME280;65257;52.104;4.268;2023-04-24T03:42:54;99917.50;;;9.25;100.00
76424;BME280;65257;52.104;4.268;2023-04-24T03:45:21;99923.47;;;9.25;100.00
76424;BME280;65257;52.104;4.268;2023-04-24T03:47:46;99928.66;;;9.28;100.00
76424;BME280;65257;52.104;4.268;2023-04-24T03:50:12;99927.88;;;9.31;100.00
76424;BME280;65257;52.104;4.268;2023-04-24T03:52:37;99933.94;;;9.34;100.00
76424;BME280;65257;52.104;4.268;2023-04-24T03:55:03;99938.00;;;9.28;100.00
76424;BME280;65257;52.104;4.268;2023-04-24T03:57:28;99921.78;;;9.24;100.00
76424;BME280;65257;52.104;4.268;2023-04-24T03:59:54;99933.59;;;9.21;100.00
76424;BME280;65257;52.104;4.268;2023-04-24T04:02:19;99939.50;;;9.20;100.00
76424;BME280;65257;52.104;4.268;2023-04-24T04:04:46;99945.09;;;9.07;100.00
76424;BME280;65257;52.104;4.268;2023-04-24T04:07:11;99939.22;;;9.09;100.00
76424;BME280;65257;52.104;4.268;2023-04-24T04:09:39;99944.81;;;8.96;100.00
76424;BME280;65257;52.104;4.268;2023-04-24T04:12:07;99943.03;;;8.92;100.00
76424;BME280;65257;52.104;4.268;2023-04-24T04:14:33;99953.81;;;8.83;100.00
76424;BME280;65257;52.104;4.268;2023-04-24T04:16:58;99954.47;;;8.75;100.00
76424;BME280;65257;52.104;4.268;2023-04-24T04:19:24;99966.31;;;8.73;100.00
76424;BME280;65257;52.104;4.268;2023-04-24T04:21:51;99987.72;;;8.79;100.00
76424;BME280;65257;52.104;4.268;2023-04-24T04:24:20;99986.84;;;8.77;100.00
76424;BME280;65257;52.104;4.268;2023-04-24T04:26:50;99979.97;;;8.75;100.00
76424;BME280;65257;52.104;4.268;2023-04-24T04:29:16;99996.72;;;8.67;100.00
76424;BME280;65257;52.104;4.268;2023-04-24T04:31:43;99997.44;;;8.63;100.00
76424;BME280;65257;52.104;4.268;2023-04-24T04:34:09;100005.56;;;8.50;100.00
76424;BME280;65257;52.104;4.268;2023-04-24T04:36:35;99986.78;;;8.46;100.00
76424;BME280;65257;52.104;4.268;2023-04-24T04:39:02;100018.13;;;8.44;100.00
76424;BME280;65257;52.104;4.268;2023-04-24T04:41:28;100027.31;;;8.39;100.00
76424;BME280;65257;52.104;4.268;2023-04-24T04:43:53;100040.16;;;8.42;100.00
76424;BME280;65257;52.104;4.268;2023-04-24T04:46:19;100046.97;;;8.43;100.00
76424;BME280;65257;52.104;4.268;2023-04-24T04:48:44;100055.63;;;8.48;100.00
76424;BME280;65257;52.104;4.268;2023-04-24T04:51:10;100050.72;;;8.54;100.00
76424;BME280;65257;52.104;4.268;2023-04-24T04:53:36;100046.59;;;8.57;100.00
76424;BME280;65257;52.104;4.268;2023-04-24T04:56:01;100046.97;;;8.43;100.00
76424;BME280;65257;52.104;4.268;2023-04-24T04:58:27;100075.84;;;8.42;100.00
76424;BME280;65257;52.104;4.268;2023-04-24T05:00:52;100074.09;;;8.41;100.00
76424;BME280;65257;52.104;4.268;2023-04-24T05:03:18;100079.19;;;8.41;100.00
76424;BME280;65257;52.104;4.268;2023-04-24T05:05:43;100088.53;;;8.40;100.00
76424;BME280;65257;52.104;4.268;2023-04-24T05:08:08;100107.19;;;8.39;100.00
76424;BME280;65257;52.104;4.268;2023-04-24T05:10:34;100108.03;;;8.40;100.00
76424;BME280;65257;52.104;4.268;2023-04-24T05:13:03;100117.31;;;8.38;100.00
76424;BME280;65257;52.104;4.268;2023-04-24T05:15:29;100116.41;;;8.36;100.00
76424;BME280;65257;52.104;4.268;2023-04-24T05:18:15;100136.81;;;8.36;100.00
76424;BME280;65257;52.104;4.268;2023-04-24T05:20:42;100132.09;;;8.48;100.00
76424;BME280;65257;52.104;4.268;2023-04-24T05:23:09;100145.69;;;8.47;100.00
76424;BME280;65257;52.104;4.268;2023-04-24T05:25:35;100142.13;;;8.42;100.00
76424;BME280;65257;52.104;4.268;2023-04-24T05:28:01;100148.09;;;8.42;100.00
76424;BME280;65257;52.104;4.268;2023-04-24T05:30:27;100146.47;;;8.46;100.00
76424;BME280;65257;52.104;4.268;2023-04-24T05:32:52;100166.22;;;8.51;100.00
76424;BME280;65257;52.104;4.268;2023-04-24T05:35:17;100167.88;;;8.51;100.00
76424;BME280;65257;52.104;4.268;2023-04-24T05:37:44;100157.78;;;8.54;100.00
76424;BME280;65257;52.104;4.268;2023-04-24T05:40:10;100179.84;;;8.52;100.00
76424;BME280;65257;52.104;4.268;2023-04-24T05:42:36;100185.03;;;8.55;100.00
76424;BME280;65257;52.104;4.268;2023-04-24T05:45:02;100193.38;;;8.51;100.00
76424;BME280;65257;52.104;4.268;2023-04-24T05:47:27;100204.47;;;8.53;100.00
76424;BME280;65257;52.104;4.268;2023-04-24T05:49:53;100213.00;;;8.53;100.00
76424;BME280;65257;52.104;4.268;2023-04-24T05:52:18;100213.66;;;8.48;100.00
76424;BME280;65257;52.104;4.268;2023-04-24T05:54:44;100214.34;;;8.42;100.00
76424;BME280;65257;52.104;4.268;2023-04-24T05:57:09;100222.03;;;8.44;100.00
76424;BME280;65257;52.104;4.268;2023-04-24T05:59:37;100233.00;;;8.41;100.00
76424;BME280;65257;52.104;4.268;2023-04-24T06:02:03;100246.50;;;8.39;100.00
76424;BME280;65257;52.104;4.268;2023-04-24T06:04:29;100258.53;;;8.43;100.00
76424;BME280;65257;52.104;4.268;2023-04-24T06:06:54;100254.38;;;8.45;100.00
76424;BME280;65257;52.104;4.268;2023-04-24T06:09:22;100263.63;;;8.43;100.00
76424;BME280;65257;52.104;4.268;2023-04-24T06:11:48;100266.28;;;8.46;100.00
76424;BME280;65257;52.104;4.268;2023-04-24T06:14:14;100269.75;;;8.48;100.00
76424;BME280;65257;52.104;4.268;2023-04-24T06:16:42;100270.78;;;8.53;100.00
76424;BME280;65257;52.104;4.268;2023-04-24T06:19:07;100279.41;;;8.56;100.00
76424;BME280;65257;52.104;4.268;2023-04-24T06:21:32;100297.97;;;8.52;100.00
76424;BME280;65257;52.104;4.268;2023-04-24T06:23:58;100295.47;;;8.54;100.00
76424;BME280;65257;52.104;4.268;2023-04-24T06:26:23;100301.44;;;8.54;100.00
76424;BME280;65257;52.104;4.268;2023-04-24T06:28:50;100289.72;;;8.59;100.00
76424;BME280;65257;52.104;4.268;2023-04-24T06:31:16;100298.28;;;8.61;100.00
76424;BME280;65257;52.104;4.268;2023-04-24T06:33:42;100304.13;;;8.59;100.00
76424;BME280;65257;52.104;4.268;2023-04-24T06:36:08;100307.47;;;8.58;100.00
76424;BME280;65257;52.104;4.268;2023-04-24T06:38:33;100316.84;;;8.57;100.00
76424;BME280;65257;52.104;4.268;2023-04-24T06:40:59;100319.94;;;8.49;100.00
76424;BME280;65257;52.104;4.268;2023-04-24T06:43:25;100349.72;;;8.50;100.00
76424;BME280;65257;52.104;4.268;2023-04-24T06:45:50;100346.16;;;8.45;100.00
76424;BME280;65257;52.104;4.268;2023-04-24T06:48:15;100361.31;;;8.42;100.00
76424;BME280;65257;52.104;4.268;2023-04-24T06:50:41;100354.47;;;8.41;100.00
76424;BME280;65257;52.104;4.268;2023-04-24T06:53:06;100369.13;;;8.46;100.00
76424;BME280;65257;52.104;4.268;2023-04-24T06:55:32;100370.19;;;8.53;100.00
76424;BME280;65257;52.104;4.268;2023-04-24T06:57:57;100365.16;;;8.54;100.00
76424;BME280;65257;52.104;4.268;2023-04-24T07:00:22;100371.94;;;8.54;100.00
76424;BME280;65257;52.104;4.268;2023-04-24T07:02:49;100395.69;;;8.53;100.00
76424;BME280;65257;52.104;4.268;2023-04-24T07:05:15;100378.88;;;8.58;100.00
76424;BME280;65257;52.104;4.268;2023-04-24T07:07:40;100385.59;;;8.56;100.00
76424;BME280;65257;52.104;4.268;2023-04-24T07:10:07;100396.84;;;8.61;100.00
76424;BME280;65257;52.104;4.268;2023-04-24T07:12:33;100390.81;;;8.59;100.00
76424;BME280;65257;52.104;4.268;2023-04-24T07:15:00;100408.81;;;8.63;100.00
76424;BME280;65257;52.104;4.268;2023-04-24T07:17:25;100402.19;;;8.68;100.00
76424;BME280;65257;52.104;4.268;2023-04-24T07:19:51;100410.03;;;8.73;100.00
76424;BME280;65257;52.104;4.268;2023-04-24T07:22:16;100422.06;;;8.77;100.00
76424;BME280;65257;52.104;4.268;2023-04-24T07:24:43;100425.44;;;8.76;100.00
76424;BME280;65257;52.104;4.268;2023-04-24T07:27:09;100427.97;;;8.76;100.00
76424;BME280;65257;52.104;4.268;2023-04-24T07:29:34;100428.59;;;8.69;100.00
76424;BME280;65257;52.104;4.268;2023-04-24T07:32:01;100434.56;;;8.69;100.00
76424;BME280;65257;52.104;4.268;2023-04-24T07:34:26;100441.44;;;8.72;100.00
76424;BME280;65257;52.104;4.268;2023-04-24T07:36:52;100455.72;;;8.67;100.00
76424;BME280;65257;52.104;4.268;2023-04-24T07:39:18;100446.81;;;8.56;100.00
76424;BME280;65257;52.104;4.268;2023-04-24T07:41:43;100453.75;;;8.60;100.00
76424;BME280;65257;52.104;4.268;2023-04-24T07:44:08;100466.72;;;8.66;100.00
76424;BME280;65257;52.104;4.268;2023-04-24T07:46:34;100479.47;;;8.66;100.00
76424;BME280;65257;52.104;4.268;2023-04-24T07:48:59;100479.59;;;8.69;100.00
76424;BME280;65257;52.104;4.268;2023-04-24T07:51:26;100478.06;;;8.74;100.00
76424;BME280;65257;52.104;4.268;2023-04-24T07:53:56;100480.03;;;8.81;100.00
76424;BME280;65257;52.104;4.268;2023-04-24T07:56:21;100481.88;;;8.85;100.00
76424;BME280;65257;52.104;4.268;2023-04-24T07:58:46;100484.91;;;8.75;100.00
76424;BME280;65257;52.104;4.268;2023-04-24T08:01:12;100494.13;;;8.71;100.00
76424;BME280;65257;52.104;4.268;2023-04-24T08:03:38;100485.72;;;8.74;100.00
76424;BME280;65257;52.104;4.268;2023-04-24T08:06:03;100500.59;;;8.62;100.00
76424;BME280;65257;52.104;4.268;2023-04-24T08:08:29;100493.06;;;8.65;100.00
76424;BME280;65257;52.104;4.268;2023-04-24T08:10:54;100495.47;;;8.62;100.00
76424;BME280;65257;52.104;4.268;2023-04-24T08:13:23;100501.50;;;8.64;100.00
76424;BME280;65257;52.104;4.268;2023-04-24T08:15:52;100496.41;;;8.64;100.00
76424;BME280;65257;52.104;4.268;2023-04-24T08:18:19;100502.25;;;8.61;100.00
76424;BME280;65257;52.104;4.268;2023-04-24T08:20:46;100522.38;;;8.54;100.00
76424;BME280;65257;52.104;4.268;2023-04-24T08:23:17;100519.56;;;8.48;100.00
76424;BME280;65257;52.104;4.268;2023-04-24T08:25:45;100529.78;;;8.48;100.00
76424;BME280;65257;52.104;4.268;2023-04-24T08:28:10;100523.09;;;8.50;100.00
76424;BME280;65257;52.104;4.268;2023-04-24T08:30:38;100536.50;;;8.46;100.00
76424;BME280;65257;52.104;4.268;2023-04-24T08:33:09;100528.06;;;8.47;100.00
76424;BME280;65257;52.104;4.268;2023-04-24T08:35:42;100542.28;;;8.64;100.00
76424;BME280;65257;52.104;4.268;2023-04-24T08:38:08;100532.16;;;8.65;100.00
76424;BME280;65257;52.104;4.268;2023-04-24T08:40:57;100555.75;;;8.60;100.00
76424;BME280;65257;52.104;4.268;2023-04-24T08:43:24;100552.63;;;8.67;100.00
76424;BME280;65257;52.104;4.268;2023-04-24T08:45:54;100562.47;;;8.58;100.00
76424;BME280;65257;52.104;4.268;2023-04-24T08:48:27;100568.72;;;8.44;100.00
76424;BME280;65257;52.104;4.268;2023-04-24T08:50:58;100574.31;;;8.35;100.00
76424;BME280;65257;52.104;4.268;2023-04-24T08:53:26;100581.16;;;8.15;100.00
76424;BME280;65257;52.104;4.268;2023-04-24T08:55:56;100578.59;;;8.15;100.00
76424;BME280;65257;52.104;4.268;2023-04-24T08:58:29;100583.13;;;8.43;100.00
76424;BME280;65257;52.104;4.268;2023-04-24T09:01:03;100575.41;;;8.62;100.00
76424;BME280;65257;52.104;4.268;2023-04-24T09:03:34;100576.63;;;8.72;100.00
76424;BME280;65257;52.104;4.268;2023-04-24T09:06:03;100576.38;;;8.66;100.00
76424;BME280;65257;52.104;4.268;2023-04-24T09:08:33;100576.50;;;8.69;100.00
76424;BME280;65257;52.104;4.268;2023-04-24T09:11:01;100573.72;;;8.85;100.00
76424;BME280;65257;52.104;4.268;2023-04-24T09:13:28;100589.72;;;9.03;100.00
76424;BME280;65257;52.104;4.268;2023-04-24T09:15:56;100594.94;;;9.06;100.00
76424;BME280;65257;52.104;4.268;2023-04-24T09:18:26;100596.31;;;8.98;100.00
76424;BME280;65257;52.104;4.268;2023-04-24T09:20:58;100599.31;;;9.10;100.00
76424;BME280;65257;52.104;4.268;2023-04-24T09:23:34;100597.47;;;9.06;100.00
76424;BME280;65257;52.104;4.268;2023-04-24T09:26:02;100605.00;;;9.03;100.00
76424;BME280;65257;52.104;4.268;2023-04-24T09:28:33;100602.69;;;8.87;100.00
76424;BME280;65257;52.104;4.268;2023-04-24T09:31:08;100611.38;;;8.92;100.00
76424;BME280;65257;52.104;4.268;2023-04-24T09:33:35;100612.78;;;8.84;100.00
76424;BME280;65257;52.104;4.268;2023-04-24T09:36:03;100610.81;;;8.77;100.00
76424;BME280;65257;52.104;4.268;2023-04-24T09:38:34;100619.59;;;8.63;100.00
76424;BME280;65257;52.104;4.268;2023-04-24T09:41:07;100630.06;;;8.69;100.00
76424;BME280;65257;52.104;4.268;2023-04-24T09:43:49;100631.97;;;8.52;100.00
76424;BME280;65257;52.104;4.268;2023-04-24T09:46:31;100639.19;;;8.64;100.00
76424;BME280;65257;52.104;4.268;2023-04-24T09:49:21;100645.81;;;8.59;100.00
76424;BME280;65257;52.104;4.268;2023-04-24T09:52:10;100663.00;;;8.42;100.00
76424;BME280;65257;52.104;4.268;2023-04-24T09:54:37;100661.09;;;8.38;100.00
76424;BME280;65257;52.104;4.268;2023-04-24T09:57:08;100675.00;;;8.26;100.00
76424;BME280;65257;52.104;4.268;2023-04-24T09:59:42;100669.56;;;7.97;100.00
76424;BME280;65257;52.104;4.268;2023-04-24T10:02:19;100680.94;;;8.05;100.00
76424;BME280;65257;52.104;4.268;2023-04-24T10:05:01;100673.00;;;8.18;100.00
76424;BME280;65257;52.104;4.268;2023-04-24T10:07:28;100685.50;;;8.32;100.00
76424;BME280;65257;52.104;4.268;2023-04-24T10:09:54;100680.88;;;8.64;100.00
76424;BME280;65257;52.104;4.268;2023-04-24T10:12:23;100679.31;;;8.68;100.00
76424;BME280;65257;52.104;4.268;2023-04-24T10:15:00;100685.38;;;9.14;100.00
76424;BME280;65257;52.104;4.268;2023-04-24T10:17:28;100672.81;;;9.19;100.00
76424;BME280;65257;52.104;4.268;2023-04-24T10:19:59;100677.63;;;9.33;100.00
76424;BME280;65257;52.104;4.268;2023-04-24T10:22:26;100685.22;;;9.10;100.00
76424;BME280;65257;52.104;4.268;2023-04-24T10:24:52;100684.13;;;9.25;100.00
76424;BME280;65257;52.104;4.268;2023-04-24T10:27:20;100678.16;;;9.49;100.00
76424;BME280;65257;52.104;4.268;2023-04-24T10:29:47;100678.00;;;9.22;100.00
76424;BME280;65257;52.104;4.268;2023-04-24T10:32:13;100694.00;;;9.16;100.00
76424;BME280;65257;52.104;4.268;2023-04-24T10:34:59;100683.53;;;9.10;100.00
76424;BME280;65257;52.104;4.268;2023-04-24T10:37:28;100699.63;;;8.87;100.00
76424;BME280;65257;52.104;4.268;2023-04-24T10:39:56;100698.00;;;8.89;100.00
76424;BME280;65257;52.104;4.268;2023-04-24T10:42:23;100709.75;;;9.06;100.00
76424;BME280;65257;52.104;4.268;2023-04-24T10:44:50;100713.56;;;9.17;100.00
76424;BME280;65257;52.104;4.268;2023-04-24T10:47:18;100717.06;;;9.41;100.00
76424;BME280;65257;52.104;4.268;2023-04-24T10:49:52;100725.06;;;9.51;100.00
76424;BME280;65257;52.104;4.268;2023-04-24T10:52:17;100718.69;;;9.39;100.00
76424;BME280;65257;52.104;4.268;2023-04-24T10:54:48;100723.66;;;9.59;100.00
76424;BME280;65257;52.104;4.268;2023-04-24T10:57:27;100727.91;;;9.82;100.00
76424;BME280;65257;52.104;4.268;2023-04-24T11:00:15;100731.63;;;9.90;100.00
76424;BME280;65257;52.104;4.268;2023-04-24T11:02:42;100733.44;;;10.16;100.00
76424;BME280;65257;52.104;4.268;2023-04-24T11:05:17;100740.28;;;10.17;100.00
76424;BME280;65257;52.104;4.268;2023-04-24T11:10:47;100736.66;;;10.59;100.00
76424;BME280;65257;52.104;4.268;2023-04-24T11:13:16;100754.84;;;10.94;100.00
76424;BME280;65257;52.104;4.268;2023-04-24T11:15:42;100755.16;;;10.78;100.00
76424;BME280;65257;52.104;4.268;2023-04-24T11:18:13;100760.38;;;10.55;100.00
76424;BME280;65257;52.104;4.268;2023-04-24T11:20:42;100767.44;;;10.62;100.00
76424;BME280;65257;52.104;4.268;2023-04-24T11:23:12;100766.72;;;10.66;100.00
76424;BME280;65257;52.104;4.268;2023-04-24T11:25:38;100767.75;;;10.72;100.00
76424;BME280;65257;52.104;4.268;2023-04-24T11:28:04;100771.84;;;10.41;100.00
76424;BME280;65257;52.104;4.268;2023-04-24T11:30:33;100771.72;;;10.63;100.00
76424;BME280;65257;52.104;4.268;2023-04-24T11:33:04;100781.66;;;10.80;100.00
76424;BME280;65257;52.104;4.268;2023-04-24T11:35:36;100785.66;;;10.46;100.00
76424;BME280;65257;52.104;4.268;2023-04-24T11:38:04;100774.47;;;10.19;100.00
76424;BME280;65257;52.104;4.268;2023-04-24T11:40:30;100786.66;;;10.26;100.00
76424;BME280;65257;52.104;4.268;2023-04-24T11:43:01;100795.94;;;10.02;100.00
76424;BME280;65257;52.104;4.268;2023-04-24T11:45:48;100797.72;;;10.50;100.00
76424;BME280;65257;52.104;4.268;2023-04-24T11:48:29;100802.88;;;10.27;100.00
76424;BME280;65257;52.104;4.268;2023-04-24T11:51:04;100798.16;;;10.15;100.00
76424;BME280;65257;52.104;4.268;2023-04-24T11:53:50;100795.63;;;9.93;100.00
76424;BME280;65257;52.104;4.268;2023-04-24T11:56:51;100806.63;;;9.90;100.00
76424;BME280;65257;52.104;4.268;2023-04-24T11:59:49;100806.06;;;9.99;100.00
76424;BME280;65257;52.104;4.268;2023-04-24T12:02:46;100799.06;;;10.39;100.00
76424;BME280;65257;52.104;4.268;2023-04-24T12:05:35;100809.81;;;10.54;100.00
76424;BME280;65257;52.104;4.268;2023-04-24T12:08:04;100812.75;;;10.18;100.00
76424;BME280;65257;52.104;4.268;2023-04-24T12:10:37;100825.50;;;10.16;100.00
76424;BME280;65257;52.104;4.268;2023-04-24T12:13:25;100820.19;;;10.35;100.00
76424;BME280;65257;52.104;4.268;2023-04-24T12:15:52;100818.84;;;10.45;100.00
76424;BME280;65257;52.104;4.268;2023-04-24T12:18:22;100818.72;;;10.65;100.00
76424;BME280;65257;52.104;4.268;2023-04-24T12:20:50;100828.22;;;10.95;100.00
76424;BME280;65257;52.104;4.268;2023-04-24T12:23:35;100828.09;;;10.65;100.00
76424;BME280;65257;52.104;4.268;2023-04-24T12:26:03;100836.53;;;10.88;100.00
76424;BME280;65257;52.104;4.268;2023-04-24T12:28:38;100839.09;;;10.62;100.00
76424;BME280;65257;52.104;4.268;2023-04-24T12:31:04;100848.69;;;10.44;100.00
76424;BME280;65257;52.104;4.268;2023-04-24T12:33:33;100848.22;;;10.56;100.00
76424;BME280;65257;52.104;4.268;2023-04-24T12:36:00;100839.81;;;10.35;100.00
76424;BME280;65257;52.104;4.268;2023-04-24T12:38:26;100845.78;;;10.59;100.00
76424;BME280;65257;52.104;4.268;2023-04-24T12:41:12;100851.41;;;10.99;100.00
76424;BME280;65257;52.104;4.268;2023-04-24T12:43:38;100862.78;;;11.59;100.00
76424;BME280;65257;52.104;4.268;2023-04-24T12:46:15;100849.63;;;10.97;100.00
76424;BME280;65257;52.104;4.268;2023-04-24T12:48:42;100856.50;;;10.73;100.00
76424;BME280;65257;52.104;4.268;2023-04-24T12:51:08;100866.41;;;10.40;100.00
76424;BME280;65257;52.104;4.268;2023-04-24T12:53:33;100855.75;;;10.51;100.00
76424;BME280;65257;52.104;4.268;2023-04-24T12:55:59;100873.25;;;10.64;100.00
76424;BME280;65257;52.104;4.268;2023-04-24T12:58:24;100867.91;;;10.58;100.00
76424;BME280;65257;52.104;4.268;2023-04-24T13:00:50;100862.91;;;10.61;100.00